createdAt,value
2018-03-12T00:02:21.043Z,39.80
2018-03-12T00:04:50.192Z,39.60
2018-03-12T00:07:19.206Z,39.80
2018-03-12T00:09:49.021Z,39.80
2018-03-12T00:12:18.804Z,39.80
2018-03-12T00:14:47.841Z,39.80
2018-03-12T00:17:16.912Z,39.70
2018-03-12T00:19:46.761Z,39.70
2018-03-12T00:22:34.532Z,39.70
2018-03-12T00:25:03.609Z,39.70
2018-03-12T00:27:32.617Z,39.70
2018-03-12T00:30:01.618Z,39.70
2018-03-12T00:32:30.662Z,39.70
2018-03-12T00:34:59.714Z,39.70
2018-03-12T00:37:28.717Z,39.70
2018-03-12T00:39:57.758Z,39.70
2018-03-12T00:42:26.815Z,39.70
2018-03-12T00:44:56.662Z,40.10
2018-03-12T00:47:25.676Z,39.70
2018-03-12T00:49:54.681Z,39.70
2018-03-12T00:52:23.732Z,40.30
2018-03-12T00:54:52.828Z,39.70
2018-03-12T00:57:21.846Z,39.60
2018-03-12T00:59:50.895Z,39.60
2018-03-12T01:02:20.666Z,39.70
2018-03-12T01:04:49.714Z,39.60
2018-03-12T01:07:19.493Z,39.60
2018-03-12T01:09:48.560Z,39.60
2018-03-12T01:12:17.570Z,39.60
2018-03-12T01:14:46.588Z,39.60
2018-03-12T01:17:15.650Z,39.60
2018-03-12T01:19:44.666Z,39.60
2018-03-12T01:22:13.768Z,39.60
2018-03-12T01:24:42.832Z,39.60
2018-03-12T01:27:11.846Z,39.60
2018-03-12T01:29:40.858Z,39.60
2018-03-12T01:32:10.670Z,40.10
2018-03-12T01:34:39.682Z,39.50
2018-03-12T01:37:09.498Z,39.50
2018-03-12T01:39:38.510Z,39.40
2018-03-12T01:42:07.573Z,39.50
2018-03-12T01:44:37.349Z,39.50
2018-03-12T01:47:06.353Z,39.50
2018-03-12T01:49:35.408Z,39.50
2018-03-12T01:52:04.417Z,39.50
2018-03-12T01:54:33.459Z,39.50
2018-03-12T01:57:03.261Z,39.50
2018-03-12T01:59:32.264Z,39.40
2018-03-12T02:02:02.070Z,39.50
2018-03-12T02:04:31.084Z,39.40
2018-03-12T02:07:00.157Z,39.50
2018-03-12T02:09:29.169Z,39.50
2018-03-12T02:11:58.963Z,39.50
2018-03-12T02:14:28.775Z,39.80
2018-03-12T02:16:57.785Z,39.40
2018-03-12T02:19:27.699Z,39.50
2018-03-12T02:21:56.722Z,39.40
2018-03-12T02:24:25.765Z,39.50
2018-03-12T02:26:54.830Z,39.50
2018-03-12T02:29:23.835Z,39.50
2018-03-12T02:31:52.852Z,39.50
2018-03-12T02:34:21.894Z,39.50
2018-03-12T02:36:50.917Z,38.90
2018-03-12T02:39:19.967Z,39.50
2018-03-12T02:41:49.038Z,39.50
2018-03-12T02:44:18.831Z,39.60
2018-03-12T02:46:47.848Z,39.50
2018-03-12T02:49:17.664Z,39.50
2018-03-12T02:51:47.447Z,39.50
2018-03-12T02:54:16.494Z,39.30
2018-03-12T02:56:45.518Z,39.40
2018-03-12T02:59:14.558Z,39.50
2018-03-12T03:01:44.335Z,39.50
2018-03-12T03:04:13.385Z,39.30
2018-03-12T03:06:42.406Z,39.40
2018-03-12T03:09:11.647Z,39.40
2018-03-12T03:11:41.427Z,39.40
2018-03-12T03:14:10.446Z,39.30
2018-03-12T03:16:39.606Z,39.40
2018-03-12T03:19:08.624Z,39.40
2018-03-12T03:21:37.634Z,39.40
2018-03-12T03:24:07.498Z,39.40
2018-03-12T03:26:36.513Z,39.30
2018-03-12T03:29:05.530Z,39.40
2018-03-12T03:31:34.583Z,39.40
2018-03-12T03:34:03.594Z,39.40
2018-03-12T03:36:32.733Z,39.40
2018-03-12T03:39:02.507Z,39.40
2018-03-12T03:41:31.615Z,39.30
2018-03-12T03:44:00.638Z,39.40
2018-03-12T03:46:30.482Z,39.40
2018-03-12T03:48:59.502Z,39.90
2018-03-12T03:51:28.519Z,39.40
2018-03-12T03:53:58.339Z,39.40
2018-03-12T03:56:28.147Z,39.40
2018-03-12T03:58:57.930Z,39.30
2018-03-12T04:01:26.982Z,39.30
2018-03-12T04:03:56.004Z,39.40
2018-03-12T04:06:25.051Z,39.30
2018-03-12T04:08:54.072Z,39.30
2018-03-12T04:11:23.466Z,39.30
2018-03-12T04:13:52.489Z,39.30
2018-03-12T04:16:21.548Z,39.20
2018-03-12T04:18:50.566Z,39.20
2018-03-12T04:21:19.610Z,39.20
2018-03-12T04:23:53.496Z,39.20
2018-03-12T04:26:28.138Z,39.20
2018-03-12T04:29:00.183Z,39.20
2018-03-12T04:31:29.544Z,39.40
2018-03-12T04:33:58.554Z,39.30
2018-03-12T04:36:27.607Z,39.20
2018-03-12T04:38:57.391Z,39.30
2018-03-12T04:41:26.617Z,39.30
2018-03-12T04:43:56.390Z,39.30
2018-03-12T04:46:25.410Z,39.20
2018-03-12T04:48:55.338Z,39.40
2018-03-12T04:51:25.123Z,39.20
2018-03-12T04:53:54.139Z,39.20
2018-03-12T04:56:24.057Z,39.20
2018-03-12T04:58:53.847Z,39.30
2018-03-12T05:01:22.895Z,39.20
2018-03-12T05:03:51.914Z,39.30
2018-03-12T05:06:20.957Z,39.20
2018-03-12T05:08:49.973Z,39.20
2018-03-12T05:11:19.028Z,39.20
2018-03-12T05:13:48.807Z,38.50
2018-03-12T05:16:17.878Z,38.50
2018-03-12T05:18:46.924Z,38.60
2018-03-12T05:21:16.743Z,38.70
2018-03-12T05:23:46.524Z,39.10
2018-03-12T05:26:15.588Z,39.10
2018-03-12T05:28:44.611Z,39.20
2018-03-12T05:31:13.658Z,39.30
2018-03-12T05:33:42.671Z,39.40
2018-03-12T05:36:11.719Z,39.40
2018-03-12T05:38:41.494Z,39.60
2018-03-12T05:41:10.587Z,39.60
2018-03-12T05:43:39.610Z,39.80
2018-03-12T05:46:08.631Z,39.80
2018-03-12T05:48:37.700Z,40.50
2018-03-12T05:51:06.714Z,39.90
2018-03-12T05:53:35.728Z,40.00
2018-03-12T05:56:04.778Z,40.00
2018-03-12T05:58:33.806Z,40.10
2018-03-12T06:01:02.854Z,40.30
2018-03-12T06:03:31.883Z,40.60
2018-03-12T06:06:01.818Z,41.00
2018-03-12T06:08:31.606Z,41.10
2018-03-12T06:11:01.431Z,41.80
2018-03-12T06:13:31.206Z,41.20
2018-03-12T06:16:00.255Z,41.20
2018-03-12T06:18:29.271Z,41.00
2018-03-12T06:20:58.325Z,41.10
2018-03-12T06:23:28.106Z,41.50
2018-03-12T06:25:57.162Z,41.40
2018-03-12T06:28:26.196Z,41.40
2018-03-12T06:30:55.246Z,41.30
2018-03-12T06:33:24.262Z,41.30
2018-03-12T06:35:53.317Z,41.10
2018-03-12T06:38:22.326Z,41.20
2018-03-12T06:40:51.383Z,41.10
2018-03-12T06:43:21.163Z,41.10
2018-03-12T06:45:50.327Z,41.00
2018-03-12T06:48:19.343Z,41.10
2018-03-12T06:50:48.359Z,41.10
2018-03-12T06:53:17.403Z,41.00
2018-03-12T06:55:46.462Z,41.00
2018-03-12T06:58:15.472Z,41.00
2018-03-12T07:00:45.282Z,41.00
2018-03-12T07:03:15.081Z,41.00
2018-03-12T07:05:44.899Z,41.10
2018-03-12T07:08:14.674Z,41.10
2018-03-12T07:10:43.730Z,40.90
2018-03-12T07:13:12.751Z,41.10
2018-03-12T07:15:41.806Z,41.10
2018-03-12T07:18:10.829Z,41.30
2018-03-12T07:20:39.855Z,41.30
2018-03-12T07:23:08.903Z,41.30
2018-03-12T07:25:37.913Z,40.90
2018-03-12T07:28:06.963Z,41.10
2018-03-12T07:30:36.741Z,41.50
2018-03-12T07:33:05.800Z,41.50
2018-03-12T07:35:34.857Z,41.50
2018-03-12T07:38:03.875Z,41.40
2018-03-12T07:40:32.951Z,41.30
2018-03-12T07:43:02.729Z,41.40
2018-03-12T07:45:31.814Z,41.40
2018-03-12T07:48:00.846Z,41.40
2018-03-12T07:50:30.631Z,41.20
2018-03-12T07:52:59.754Z,41.20
2018-03-12T07:55:29.544Z,41.00
2018-03-12T07:57:58.602Z,41.00
2018-03-12T08:00:27.627Z,41.00
2018-03-12T08:02:56.674Z,41.00
2018-03-12T08:05:25.689Z,41.00
2018-03-12T08:07:54.734Z,41.00
2018-03-12T08:10:24.520Z,41.30
2018-03-12T08:12:53.563Z,41.30
2018-03-12T08:15:22.851Z,41.50
2018-03-12T08:17:52.672Z,41.20
2018-03-12T08:20:21.693Z,41.10
2018-03-12T08:22:50.743Z,41.10
2018-03-12T08:25:20.518Z,41.00
2018-03-12T08:27:49.578Z,40.90
2018-03-12T08:30:18.642Z,40.90
2018-03-12T08:32:48.449Z,40.70
2018-03-12T08:35:18.230Z,40.60
2018-03-12T08:37:47.293Z,40.60
2018-03-12T08:40:16.307Z,40.50
2018-03-12T08:42:45.398Z,40.50
2018-03-12T08:45:14.419Z,40.40
2018-03-12T08:47:43.544Z,40.40
2018-03-12T08:50:13.758Z,40.40
2018-03-12T08:52:43.542Z,40.40
2018-03-12T08:55:12.557Z,40.40
2018-03-12T08:57:42.388Z,41.10
2018-03-12T09:00:12.166Z,40.50
2018-03-12T09:02:41.259Z,40.50
2018-03-12T09:05:10.259Z,40.50
2018-03-12T09:07:39.284Z,40.40
2018-03-12T09:10:09.116Z,40.40
2018-03-12T09:12:38.130Z,40.40
2018-03-12T09:15:07.152Z,40.40
2018-03-12T09:17:36.210Z,40.40
2018-03-12T09:20:05.231Z,40.40
2018-03-12T09:22:34.287Z,40.40
2018-03-12T09:25:03.298Z,40.40
2018-03-12T09:27:32.310Z,40.40
2018-03-12T09:30:01.367Z,40.40
2018-03-12T09:32:30.399Z,40.30
2018-03-12T09:34:59.452Z,40.30
2018-03-12T09:37:28.510Z,40.30
2018-03-12T09:39:58.322Z,40.30
2018-03-12T09:42:28.098Z,40.30
2018-03-12T09:44:57.254Z,40.30
2018-03-12T09:47:26.337Z,40.20
2018-03-12T09:49:56.133Z,40.20
2018-03-12T09:52:25.951Z,40.20
2018-03-12T09:54:55.734Z,40.20
2018-03-12T09:57:24.773Z,40.20
2018-03-12T09:59:53.850Z,40.20
2018-03-12T10:02:23.663Z,40.30
2018-03-12T10:04:53.437Z,40.20
2018-03-12T10:07:22.807Z,40.20
2018-03-12T10:09:51.870Z,40.20
2018-03-12T10:12:21.700Z,40.20
2018-03-12T10:14:50.776Z,40.20
2018-03-12T10:17:20.555Z,40.10
2018-03-12T10:19:49.578Z,40.10
2018-03-12T10:22:19.435Z,40.10
2018-03-12T10:24:48.442Z,40.10
2018-03-12T10:27:17.463Z,40.10
2018-03-12T10:29:46.518Z,40.00
2018-03-12T10:32:15.572Z,40.00
2018-03-12T10:34:45.355Z,40.00
2018-03-12T10:37:14.415Z,39.90
2018-03-12T10:39:43.426Z,39.90
2018-03-12T10:42:12.466Z,39.90
2018-03-12T10:44:42.268Z,39.90
2018-03-12T10:47:12.234Z,39.90
2018-03-12T10:49:41.246Z,39.90
2018-03-12T10:52:10.267Z,39.80
2018-03-12T10:54:39.316Z,39.80
2018-03-12T10:57:08.339Z,39.90
2018-03-12T10:59:37.505Z,39.80
2018-03-12T11:02:06.496Z,39.80
2018-03-12T11:04:37.907Z,39.80
2018-03-12T11:07:11.478Z,39.70
2018-03-12T11:09:40.596Z,39.70
2018-03-12T11:12:10.367Z,39.70
2018-03-12T11:14:39.435Z,39.70
2018-03-12T11:17:08.453Z,39.70
2018-03-12T11:19:37.503Z,39.70
2018-03-12T11:22:06.518Z,39.60
2018-03-12T11:24:35.562Z,39.60
2018-03-12T11:27:04.587Z,39.50
2018-03-12T11:29:33.674Z,40.20
2018-03-12T11:32:03.450Z,39.30
2018-03-12T11:34:32.498Z,39.30
2018-03-12T11:37:01.510Z,39.20
2018-03-12T11:39:30.562Z,39.00
2018-03-12T11:42:00.333Z,38.90
2018-03-12T11:44:29.794Z,38.90
2018-03-12T11:46:58.828Z,38.80
2018-03-12T11:49:27.952Z,38.90
2018-03-12T11:51:57.047Z,39.00
2018-03-12T11:54:26.093Z,39.30
2018-03-12T11:56:55.488Z,39.60
2018-03-12T11:59:24.770Z,39.70
2018-03-12T12:01:53.866Z,39.50
2018-03-12T12:04:23.695Z,39.40
2018-03-12T12:06:52.740Z,39.40
2018-03-12T12:09:21.751Z,39.20
2018-03-12T12:11:50.814Z,39.30
2018-03-12T12:14:19.863Z,39.40
2018-03-12T12:16:49.662Z,39.40
2018-03-12T12:19:19.562Z,40.00
2018-03-12T12:21:50.408Z,39.40
2018-03-12T12:24:19.520Z,39.40
2018-03-12T12:26:49.335Z,39.60
2018-03-12T12:29:18.396Z,39.60
2018-03-12T12:31:47.741Z,39.70
2018-03-12T12:34:16.826Z,39.70
2018-03-12T12:36:45.846Z,39.70
2018-03-12T12:39:15.659Z,40.20
2018-03-12T12:41:45.628Z,39.50
2018-03-12T12:44:15.076Z,39.30
2018-03-12T12:46:44.976Z,39.40
2018-03-12T12:49:14.269Z,39.30
2018-03-12T12:51:43.337Z,39.40
2018-03-12T12:54:12.361Z,39.40
2018-03-12T12:56:41.573Z,39.40
2018-03-12T12:59:10.634Z,39.40
2018-03-12T13:01:39.707Z,39.50
2018-03-12T13:04:08.728Z,39.50
2018-03-12T13:06:37.779Z,39.50
2018-03-12T13:09:06.799Z,39.50
2018-03-12T13:11:35.845Z,39.60
2018-03-12T13:14:05.663Z,40.20
2018-03-12T13:16:35.495Z,39.70
2018-03-12T13:19:04.503Z,39.70
2018-03-12T13:21:33.515Z,39.60
2018-03-12T13:24:02.587Z,39.70
2018-03-12T13:26:31.610Z,39.90
2018-03-12T13:29:00.670Z,40.10
2018-03-12T13:31:30.047Z,40.40
2018-03-12T13:33:59.830Z,40.30
2018-03-12T13:36:28.837Z,40.30
2018-03-12T13:38:57.887Z,40.10
2018-03-12T13:41:26.940Z,40.20
2018-03-12T13:43:56.864Z,39.90
2018-03-12T13:46:26.637Z,39.90
2018-03-12T13:48:55.651Z,39.80
2018-03-12T13:51:24.703Z,39.90
2018-03-12T13:53:53.790Z,40.10
2018-03-12T13:56:22.791Z,40.10
2018-03-12T13:58:51.846Z,40.00
2018-03-12T14:01:20.908Z,40.00
2018-03-12T14:03:49.959Z,40.00
2018-03-12T14:06:19.739Z,40.10
2018-03-12T14:08:48.818Z,40.10
2018-03-12T14:11:17.834Z,40.10
2018-03-12T14:13:46.934Z,40.10
2018-03-12T14:16:16.824Z,40.00
2018-03-12T14:18:45.847Z,40.00
2018-03-12T14:21:15.658Z,39.90
2018-03-12T14:23:45.514Z,40.00
2018-03-12T14:26:14.526Z,39.90
2018-03-12T14:28:43.552Z,39.90
2018-03-12T14:31:12.653Z,39.90
2018-03-12T14:33:41.675Z,39.90
2018-03-12T14:36:11.496Z,40.00
2018-03-12T14:38:41.280Z,40.00
2018-03-12T14:41:10.471Z,40.00
2018-03-12T14:43:40.262Z,40.00
2018-03-12T14:46:09.280Z,40.10
2018-03-12T14:48:38.505Z,40.00
2018-03-12T14:51:07.525Z,40.20
2018-03-12T14:53:36.534Z,40.20
2018-03-12T14:56:05.591Z,40.20
2018-03-12T14:58:34.619Z,40.20
2018-03-12T15:01:03.670Z,40.20
2018-03-12T15:03:32.684Z,40.30
2018-03-12T15:06:01.740Z,40.20
2018-03-12T15:08:30.761Z,40.30
2018-03-12T15:10:59.821Z,40.40
2018-03-12T15:13:28.840Z,40.40
2018-03-12T15:15:57.900Z,40.30
2018-03-12T15:18:26.915Z,40.40
2018-03-12T15:20:56.728Z,40.40
2018-03-12T15:23:25.745Z,40.40
2018-03-12T15:25:55.568Z,40.50
2018-03-12T15:28:24.683Z,40.50
2018-03-12T15:30:54.432Z,40.80
2018-03-12T15:33:23.479Z,40.60
2018-03-12T15:35:52.507Z,40.90
2018-03-12T15:38:21.564Z,41.10
2018-03-12T15:40:50.747Z,41.00
2018-03-12T15:43:20.526Z,41.20
2018-03-12T15:45:49.638Z,41.20
2018-03-12T15:48:19.613Z,41.00
2018-03-12T15:50:48.629Z,41.00
2018-03-12T15:53:18.311Z,40.80
2018-03-12T15:55:47.361Z,40.70
2018-03-12T15:58:17.175Z,40.70
2018-03-12T16:00:47.615Z,40.70
2018-03-12T16:03:16.851Z,40.60
2018-03-12T16:05:45.886Z,40.70
2018-03-12T16:08:15.704Z,40.80
2018-03-12T16:10:46.068Z,40.70
2018-03-12T16:13:15.210Z,40.70
2018-03-12T16:15:45.090Z,40.70
2018-03-12T16:18:14.138Z,40.70
2018-03-12T16:20:43.914Z,40.70
2018-03-12T16:23:12.986Z,40.60
2018-03-12T16:25:42.006Z,40.70
2018-03-12T16:28:11.059Z,40.70
2018-03-12T16:30:40.074Z,40.70
2018-03-12T16:33:09.235Z,40.70
2018-03-12T16:35:39.019Z,40.80
2018-03-12T16:38:08.062Z,40.80
2018-03-12T16:40:37.083Z,41.00
2018-03-12T16:43:06.150Z,40.90
2018-03-12T16:45:35.175Z,40.80
2018-03-12T16:48:04.197Z,40.70
2018-03-12T16:50:33.423Z,40.80
2018-03-12T16:53:02.443Z,40.60
2018-03-12T16:55:31.472Z,40.80
2018-03-12T16:58:00.667Z,40.80
2018-03-12T17:00:30.782Z,40.80
2018-03-12T17:03:00.968Z,40.70
2018-03-12T17:05:30.130Z,40.70
2018-03-12T17:07:59.145Z,40.60
2018-03-12T17:10:28.561Z,40.60
2018-03-12T17:12:57.652Z,40.30
2018-03-12T17:15:27.519Z,40.60
2018-03-12T17:17:57.469Z,40.60
2018-03-12T17:20:26.499Z,40.60
2018-03-12T17:22:56.827Z,40.90
2018-03-12T17:25:27.087Z,40.90
2018-03-12T17:27:56.150Z,40.90
2018-03-12T17:30:25.941Z,40.90
2018-03-12T17:32:54.957Z,40.80
2018-03-12T17:35:24.783Z,40.70
2018-03-12T17:37:53.934Z,40.70
2018-03-12T17:40:23.058Z,40.60
2018-03-12T17:42:52.841Z,40.70
2018-03-12T17:45:21.863Z,40.60
2018-03-12T17:47:51.887Z,40.70
2018-03-12T17:50:22.594Z,40.70
2018-03-12T17:52:51.824Z,40.60
2018-03-12T17:55:20.902Z,40.70
2018-03-12T17:57:50.788Z,40.80
2018-03-12T18:00:19.813Z,40.70
2018-03-12T18:02:49.587Z,40.80
2018-03-12T18:05:18.732Z,40.70
2018-03-12T18:07:48.027Z,40.80
2018-03-12T18:10:17.124Z,40.80
2018-03-12T18:12:46.955Z,40.90
2018-03-12T18:15:15.965Z,40.80
2018-03-12T18:17:44.984Z,40.90
2018-03-12T18:20:14.106Z,40.80
2018-03-12T18:22:43.935Z,40.90
2018-03-12T18:25:13.025Z,40.90
2018-03-12T18:27:42.834Z,40.90
2018-03-12T18:30:12.629Z,40.80
2018-03-12T18:32:41.687Z,40.70
2018-03-12T18:35:10.941Z,40.90
2018-03-12T18:37:40.755Z,40.70
2018-03-12T18:40:10.555Z,40.90
2018-03-12T18:42:40.402Z,40.70
2018-03-12T18:45:09.424Z,40.80
2018-03-12T18:47:38.520Z,40.80
2018-03-12T18:50:07.550Z,40.80
2018-03-12T18:52:37.345Z,40.90
2018-03-12T18:55:06.404Z,40.90
2018-03-12T18:57:35.475Z,40.90
2018-03-12T19:00:04.503Z,41.30
2018-03-12T19:02:33.572Z,41.30
2018-03-12T19:05:02.633Z,41.40
2018-03-12T19:07:32.776Z,41.40
2018-03-12T19:10:01.795Z,41.40
2018-03-12T19:12:30.802Z,41.70
2018-03-12T19:14:59.888Z,41.90
2018-03-12T19:17:28.906Z,42.20
2018-03-12T19:19:57.931Z,41.70
2018-03-12T19:22:27.888Z,41.60
2018-03-12T19:24:56.902Z,41.60
2018-03-12T19:27:26.036Z,41.60
2018-03-12T19:29:56.290Z,41.70
2018-03-12T19:32:25.302Z,41.60
2018-03-12T19:34:54.430Z,41.50
2018-03-12T19:37:23.477Z,41.50
2018-03-12T19:39:52.522Z,41.50
2018-03-12T19:42:22.309Z,41.50
2018-03-12T19:44:51.390Z,41.50
2018-03-12T19:47:20.439Z,41.50
2018-03-12T19:49:50.250Z,41.50
2018-03-12T19:52:19.339Z,41.30
2018-03-12T19:54:49.143Z,41.80
2018-03-12T19:57:18.926Z,42.00
2018-03-12T19:59:47.977Z,41.80
2018-03-12T20:02:16.994Z,42.10
2018-03-12T20:04:46.051Z,42.30
2018-03-12T20:07:15.223Z,42.40
2018-03-12T20:09:44.280Z,42.50
2018-03-12T20:12:16.139Z,42.70
2018-03-12T20:14:47.920Z,42.40
2018-03-12T20:17:16.939Z,42.50
2018-03-12T20:19:46.843Z,42.50
2018-03-12T20:22:15.899Z,42.30
2018-03-12T20:24:44.918Z,42.60
2018-03-12T20:27:13.943Z,42.50
2018-03-12T20:29:43.754Z,42.60
2018-03-12T20:32:13.671Z,42.60
2018-03-12T20:34:43.479Z,42.60
2018-03-12T20:37:13.311Z,42.70
2018-03-12T20:39:42.370Z,42.60
2018-03-12T20:42:11.418Z,42.60
2018-03-12T20:44:40.590Z,42.30
2018-03-12T20:47:09.635Z,42.60
2018-03-12T20:49:38.658Z,42.60
2018-03-12T20:52:08.524Z,43.30
2018-03-12T20:54:37.619Z,42.50
2018-03-12T20:57:06.626Z,42.60
2018-03-12T20:59:36.155Z,42.60
2018-03-12T21:02:05.176Z,42.60
2018-03-12T21:04:35.015Z,42.60
2018-03-12T21:07:04.845Z,42.50
2018-03-12T21:09:33.967Z,42.50
2018-03-12T21:12:03.010Z,42.40
2018-03-12T21:14:32.059Z,41.80
2018-03-12T21:17:01.074Z,41.60
2018-03-12T21:19:31.291Z,42.10
2018-03-12T21:22:01.071Z,41.80
2018-03-12T21:24:30.178Z,41.70
2018-03-12T21:26:59.222Z,41.60
2018-03-12T21:29:28.590Z,41.30
2018-03-12T21:31:57.893Z,41.30
2018-03-12T21:34:26.959Z,41.20
2018-03-12T21:36:55.995Z,40.90
2018-03-12T21:39:25.811Z,41.20
2018-03-12T21:41:55.586Z,41.20
2018-03-12T21:44:24.735Z,41.10
2018-03-12T21:46:53.819Z,41.20
2018-03-12T21:49:23.602Z,41.00
2018-03-12T21:51:53.447Z,41.10
2018-03-12T21:54:23.283Z,41.00
2018-03-12T21:56:52.298Z,40.90
2018-03-12T21:59:21.380Z,40.70
2018-03-12T22:01:50.398Z,40.70
2018-03-12T22:04:19.450Z,40.60
2018-03-12T22:06:48.467Z,40.60
2018-03-12T22:09:17.546Z,40.60
2018-03-12T22:11:46.555Z,40.60
2018-03-12T22:14:15.589Z,40.60
2018-03-12T22:16:44.642Z,40.60
2018-03-12T22:19:13.682Z,40.60
2018-03-12T22:21:42.730Z,40.60
2018-03-12T22:24:11.798Z,40.60
2018-03-12T22:26:40.819Z,40.60
2018-03-12T22:29:09.873Z,40.60
2018-03-12T22:31:39.051Z,40.50
2018-03-12T22:34:08.094Z,40.50
2018-03-12T22:36:37.111Z,40.60
2018-03-12T22:39:06.179Z,40.60
2018-03-12T22:41:35.199Z,40.50
2018-03-12T22:44:04.303Z,40.50
2018-03-12T22:46:33.310Z,40.50
2018-03-12T22:49:02.324Z,40.50
2018-03-12T22:51:32.147Z,40.50
2018-03-12T22:54:01.173Z,40.50
2018-03-12T22:56:30.220Z,40.50
2018-03-12T22:59:00.060Z,40.50
2018-03-12T23:01:29.078Z,40.50
2018-03-12T23:03:58.531Z,40.50
2018-03-12T23:06:28.356Z,41.20
2018-03-12T23:08:58.187Z,40.40
2018-03-12T23:11:27.198Z,40.30
2018-03-12T23:13:56.217Z,40.40
2018-03-12T23:16:25.758Z,40.50
2018-03-12T23:18:54.809Z,40.50
2018-03-12T23:21:23.839Z,40.50
2018-03-12T23:23:53.675Z,40.50
2018-03-12T23:26:22.696Z,40.40
2018-03-12T23:28:51.712Z,40.40
2018-03-12T23:31:20.758Z,40.40
2018-03-12T23:33:49.775Z,40.30
2018-03-12T23:36:18.823Z,40.30
2018-03-12T23:38:48.618Z,40.40
2018-03-12T23:41:17.798Z,40.40
2018-03-12T23:43:46.820Z,40.30
2018-03-12T23:46:16.597Z,40.40
2018-03-12T23:48:45.655Z,40.40
2018-03-12T23:51:14.732Z,40.30
2018-03-12T23:53:44.643Z,40.40
2018-03-12T23:56:14.650Z,40.30
2018-03-12T23:58:44.425Z,40.30
